sensor_id;sensor_type;location;lat;lon;timestamp;temperature;humidity
36206;DHT22;22242;48.796;9.930;2022-07-18T00:01:06;15.80;75.00
36206;DHT22;22242;48.796;9.930;2022-07-18T00:03:32;15.90;75.30
36206;DHT22;22242;48.796;9.930;2022-07-18T00:06:01;15.80;76.90
36206;DHT22;22242;48.796;9.930;2022-07-18T00:08:28;15.70;76.80
36206;DHT22;22242;48.796;9.930;2022-07-18T00:10:54;15.80;75.50
36206;DHT22;22242;48.796;9.930;2022-07-18T00:13:21;15.70;74.40
36206;DHT22;22242;48.796;9.930;2022-07-18T00:15:48;15.80;76.70
36206;DHT22;22242;48.796;9.930;2022-07-18T00:18:15;15.70;77.70
36206;DHT22;22242;48.796;9.930;2022-07-18T00:20:42;15.50;78.60
36206;DHT22;22242;48.796;9.930;2022-07-18T00:23:11;15.50;75.40
36206;DHT22;22242;48.796;9.930;2022-07-18T00:25:38;15.60;81.90
36206;DHT22;22242;48.796;9.930;2022-07-18T00:28:05;15.40;79.70
36206;DHT22;22242;48.796;9.930;2022-07-18T00:30:32;15.40;78.20
36206;DHT22;22242;48.796;9.930;2022-07-18T00:32:59;15.30;79.80
36206;DHT22;22242;48.796;9.930;2022-07-18T00:35:26;15.40;74.20
36206;DHT22;22242;48.796;9.930;2022-07-18T00:37:53;15.50;73.10
36206;DHT22;22242;48.796;9.930;2022-07-18T00:40:21;15.60;73.50
36206;DHT22;22242;48.796;9.930;2022-07-18T00:42:48;15.50;76.80
36206;DHT22;22242;48.796;9.930;2022-07-18T00:45:15;15.50;73.60
36206;DHT22;22242;48.796;9.930;2022-07-18T00:47:42;15.60;72.80
36206;DHT22;22242;48.796;9.930;2022-07-18T00:50:10;15.50;74.30
36206;DHT22;22242;48.796;9.930;2022-07-18T00:52:37;15.30;78.80
36206;DHT22;22242;48.796;9.930;2022-07-18T00:55:05;15.20;77.20
36206;DHT22;22242;48.796;9.930;2022-07-18T00:57:34;15.30;75.50
36206;DHT22;22242;48.796;9.930;2022-07-18T01:00:02;15.40;73.10
36206;DHT22;22242;48.796;9.930;2022-07-18T01:02:47;15.40;72.10
36206;DHT22;22242;48.796;9.930;2022-07-18T01:05:14;15.70;70.60
36206;DHT22;22242;48.796;9.930;2022-07-18T01:07:40;15.80;70.30
36206;DHT22;22242;48.796;9.930;2022-07-18T01:10:08;15.70;71.70
36206;DHT22;22242;48.796;9.930;2022-07-18T01:12:37;15.60;71.40
36206;DHT22;22242;48.796;9.930;2022-07-18T01:15:05;15.50;71.60
36206;DHT22;22242;48.796;9.930;2022-07-18T01:17:33;15.50;72.40
36206;DHT22;22242;48.796;9.930;2022-07-18T01:20:01;15.50;71.50
36206;DHT22;22242;48.796;9.930;2022-07-18T01:22:29;15.50;71.60
36206;DHT22;22242;48.796;9.930;2022-07-18T01:24:56;15.40;73.40
36206;DHT22;22242;48.796;9.930;2022-07-18T01:27:23;15.20;73.40
36206;DHT22;22242;48.796;9.930;2022-07-18T01:29:52;15.20;75.40
36206;DHT22;22242;48.796;9.930;2022-07-18T01:32:20;15.20;72.30
36206;DHT22;22242;48.796;9.930;2022-07-18T01:34:47;15.20;74.70
36206;DHT22;22242;48.796;9.930;2022-07-18T01:37:15;15.20;71.60
36206;DHT22;22242;48.796;9.930;2022-07-18T01:39:45;15.20;72.20
36206;DHT22;22242;48.796;9.930;2022-07-18T01:42:13;15.10;72.60
36206;DHT22;22242;48.796;9.930;2022-07-18T01:44:40;15.10;75.20
36206;DHT22;22242;48.796;9.930;2022-07-18T01:47:09;15.00;78.90
36206;DHT22;22242;48.796;9.930;2022-07-18T01:49:36;14.80;84.50
36206;DHT22;22242;48.796;9.930;2022-07-18T01:52:04;14.60;83.50
36206;DHT22;22242;48.796;9.930;2022-07-18T01:54:34;14.60;83.30
36206;DHT22;22242;48.796;9.930;2022-07-18T01:57:05;14.50;79.60
36206;DHT22;22242;48.796;9.930;2022-07-18T01:59:33;14.60;83.50
36206;DHT22;22242;48.796;9.930;2022-07-18T02:02:00;14.60;82.40
36206;DHT22;22242;48.796;9.930;2022-07-18T02:04:28;14.50;80.30
36206;DHT22;22242;48.796;9.930;2022-07-18T02:07:09;14.50;82.80
36206;DHT22;22242;48.796;9.930;2022-07-18T02:09:36;14.50;84.50
36206;DHT22;22242;48.796;9.930;2022-07-18T02:12:05;14.50;81.90
36206;DHT22;22242;48.796;9.930;2022-07-18T02:14:32;14.50;84.70
36206;DHT22;22242;48.796;9.930;2022-07-18T02:16:59;14.40;84.00
36206;DHT22;22242;48.796;9.930;2022-07-18T02:19:26;14.30;84.70
36206;DHT22;22242;48.796;9.930;2022-07-18T02:21:53;14.20;83.50
36206;DHT22;22242;48.796;9.930;2022-07-18T02:24:20;14.20;85.50
36206;DHT22;22242;48.796;9.930;2022-07-18T02:26:47;14.20;86.20
36206;DHT22;22242;48.796;9.930;2022-07-18T02:29:16;14.10;87.60
36206;DHT22;22242;48.796;9.930;2022-07-18T02:31:42;14.10;88.10
36206;DHT22;22242;48.796;9.930;2022-07-18T02:34:09;14.10;86.10
36206;DHT22;22242;48.796;9.930;2022-07-18T02:36:36;14.10;86.40
36206;DHT22;22242;48.796;9.930;2022-07-18T02:39:03;14.00;88.80
36206;DHT22;22242;48.796;9.930;2022-07-18T02:41:31;14.10;88.30
36206;DHT22;22242;48.796;9.930;2022-07-18T02:43:58;14.00;90.10
36206;DHT22;22242;48.796;9.930;2022-07-18T02:46:26;13.70;92.00
36206;DHT22;22242;48.796;9.930;2022-07-18T02:48:53;13.80;90.20
36206;DHT22;22242;48.796;9.930;2022-07-18T02:51:20;13.80;91.40
36206;DHT22;22242;48.796;9.930;2022-07-18T02:53:47;13.90;90.70
36206;DHT22;22242;48.796;9.930;2022-07-18T02:56:14;13.80;90.20
36206;DHT22;22242;48.796;9.930;2022-07-18T02:58:41;13.90;92.50
36206;DHT22;22242;48.796;9.930;2022-07-18T03:01:08;13.70;93.90
36206;DHT22;22242;48.796;9.930;2022-07-18T03:03:36;13.70;93.10
36206;DHT22;22242;48.796;9.930;2022-07-18T03:06:04;13.70;94.20
36206;DHT22;22242;48.796;9.930;2022-07-18T03:08:31;13.60;94.20
36206;DHT22;22242;48.796;9.930;2022-07-18T03:10:58;13.60;95.40
36206;DHT22;22242;48.796;9.930;2022-07-18T03:13:25;13.40;95.10
36206;DHT22;22242;48.796;9.930;2022-07-18T03:15:52;13.40;96.50
36206;DHT22;22242;48.796;9.930;2022-07-18T03:18:19;13.30;97.80
36206;DHT22;22242;48.796;9.930;2022-07-18T03:20:49;13.40;96.90
36206;DHT22;22242;48.796;9.930;2022-07-18T03:23:16;13.40;99.30
36206;DHT22;22242;48.796;9.930;2022-07-18T03:25:43;13.40;99.50
36206;DHT22;22242;48.796;9.930;2022-07-18T03:28:10;13.40;99.80
36206;DHT22;22242;48.796;9.930;2022-07-18T03:30:37;13.30;99.80
36206;DHT22;22242;48.796;9.930;2022-07-18T03:33:04;13.20;99.90
36206;DHT22;22242;48.796;9.930;2022-07-18T03:35:31;13.30;99.90
36206;DHT22;22242;48.796;9.930;2022-07-18T03:38:00;13.30;99.90
36206;DHT22;22242;48.796;9.930;2022-07-18T03:40:27;13.30;99.90
36206;DHT22;22242;48.796;9.930;2022-07-18T03:42:54;13.20;99.90
36206;DHT22;22242;48.796;9.930;2022-07-18T03:45:21;13.20;99.90
36206;DHT22;22242;48.796;9.930;2022-07-18T03:47:47;13.20;99.90
36206;DHT22;22242;48.796;9.930;2022-07-18T03:50:15;13.30;99.90
36206;DHT22;22242;48.796;9.930;2022-07-18T03:52:42;13.20;99.90
36206;DHT22;22242;48.796;9.930;2022-07-18T03:55:10;13.30;99.90
36206;DHT22;22242;48.796;9.930;2022-07-18T03:57:37;13.30;99.90
36206;DHT22;22242;48.796;9.930;2022-07-18T04:00:05;13.40;99.90
36206;DHT22;22242;48.796;9.930;2022-07-18T04:02:38;13.50;99.90
36206;DHT22;22242;48.796;9.930;2022-07-18T04:05:06;13.60;99.90
36206;DHT22;22242;48.796;9.930;2022-07-18T04:07:33;13.60;99.90
36206;DHT22;22242;48.796;9.930;2022-07-18T04:10:00;13.60;99.90
36206;DHT22;22242;48.796;9.930;2022-07-18T04:12:29;13.50;99.90
36206;DHT22;22242;48.796;9.930;2022-07-18T04:14:56;13.50;99.90
36206;DHT22;22242;48.796;9.930;2022-07-18T04:17:23;13.60;99.90
36206;DHT22;22242;48.796;9.930;2022-07-18T04:19:50;13.60;99.90
36206;DHT22;22242;48.796;9.930;2022-07-18T04:22:18;13.60;99.90
36206;DHT22;22242;48.796;9.930;2022-07-18T04:24:45;13.60;99.90
36206;DHT22;22242;48.796;9.930;2022-07-18T04:27:11;13.70;99.90
36206;DHT22;22242;48.796;9.930;2022-07-18T04:29:40;13.70;99.90
36206;DHT22;22242;48.796;9.930;2022-07-18T04:32:08;13.80;99.90
36206;DHT22;22242;48.796;9.930;2022-07-18T04:34:35;13.90;99.90
36206;DHT22;22242;48.796;9.930;2022-07-18T04:37:02;13.90;99.90
36206;DHT22;22242;48.796;9.930;2022-07-18T04:39:29;14.10;99.90
36206;DHT22;22242;48.796;9.930;2022-07-18T04:41:56;14.20;99.90
36206;DHT22;22242;48.796;9.930;2022-07-18T04:44:23;14.20;99.90
36206;DHT22;22242;48.796;9.930;2022-07-18T04:46:52;14.30;99.90
36206;DHT22;22242;48.796;9.930;2022-07-18T04:49:19;14.40;99.90
36206;DHT22;22242;48.796;9.930;2022-07-18T04:51:45;14.50;99.90
36206;DHT22;22242;48.796;9.930;2022-07-18T04:54:12;14.60;99.90
36206;DHT22;22242;48.796;9.930;2022-07-18T04:56:39;14.80;99.90
36206;DHT22;22242;48.796;9.930;2022-07-18T04:59:06;14.90;99.90
36206;DHT22;22242;48.796;9.930;2022-07-18T05:01:33;15.00;99.90
36206;DHT22;22242;48.796;9.930;2022-07-18T05:04:03;15.20;99.90
36206;DHT22;22242;48.796;9.930;2022-07-18T05:06:30;15.30;99.90
36206;DHT22;22242;48.796;9.930;2022-07-18T05:08:57;15.60;99.90
36206;DHT22;22242;48.796;9.930;2022-07-18T05:11:24;15.80;99.90
36206;DHT22;22242;48.796;9.930;2022-07-18T05:13:51;16.00;99.90
36206;DHT22;22242;48.796;9.930;2022-07-18T05:16:18;16.10;99.90
36206;DHT22;22242;48.796;9.930;2022-07-18T05:18:45;16.10;99.90
36206;DHT22;22242;48.796;9.930;2022-07-18T05:21:13;16.30;99.90
36206;DHT22;22242;48.796;9.930;2022-07-18T05:23:40;16.60;99.90
36206;DHT22;22242;48.796;9.930;2022-07-18T05:26:07;16.70;99.70
36206;DHT22;22242;48.796;9.930;2022-07-18T05:28:34;17.00;99.90
36206;DHT22;22242;48.796;9.930;2022-07-18T05:31:01;17.30;99.70
36206;DHT22;22242;48.796;9.930;2022-07-18T05:33:28;17.40;99.40
36206;DHT22;22242;48.796;9.930;2022-07-18T05:35:56;17.70;99.50
36206;DHT22;22242;48.796;9.930;2022-07-18T05:38:24;17.90;98.30
36206;DHT22;22242;48.796;9.930;2022-07-18T05:40:51;18.00;99.10
36206;DHT22;22242;48.796;9.930;2022-07-18T05:43:18;17.80;99.90
36206;DHT22;22242;48.796;9.930;2022-07-18T05:45:45;17.70;99.90
36206;DHT22;22242;48.796;9.930;2022-07-18T05:48:12;17.60;99.90
36206;DHT22;22242;48.796;9.930;2022-07-18T05:50:40;17.60;99.90
36206;DHT22;22242;48.796;9.930;2022-07-18T05:53:07;17.50;99.90
36206;DHT22;22242;48.796;9.930;2022-07-18T05:55:36;17.70;99.90
36206;DHT22;22242;48.796;9.930;2022-07-18T05:58:03;17.80;99.90
36206;DHT22;22242;48.796;9.930;2022-07-18T06:00:30;18.00;99.90
36206;DHT22;22242;48.796;9.930;2022-07-18T06:02:57;18.30;99.90
36206;DHT22;22242;48.796;9.930;2022-07-18T06:05:25;18.50;98.70
36206;DHT22;22242;48.796;9.930;2022-07-18T06:07:52;18.70;97.70
36206;DHT22;22242;48.796;9.930;2022-07-18T06:10:20;19.10;97.80
36206;DHT22;22242;48.796;9.930;2022-07-18T06:12:48;19.30;96.70
36206;DHT22;22242;48.796;9.930;2022-07-18T06:15:17;19.70;97.30
36206;DHT22;22242;48.796;9.930;2022-07-18T06:17:44;20.10;95.30
36206;DHT22;22242;48.796;9.930;2022-07-18T06:20:11;20.60;94.70
36206;DHT22;22242;48.796;9.930;2022-07-18T06:22:38;20.60;92.90
36206;DHT22;22242;48.796;9.930;2022-07-18T06:25:06;20.90;93.40
36206;DHT22;22242;48.796;9.930;2022-07-18T06:27:33;21.40;92.50
36206;DHT22;22242;48.796;9.930;2022-07-18T06:30:02;22.10;90.10
36206;DHT22;22242;48.796;9.930;2022-07-18T06:32:30;22.20;89.90
36206;DHT22;22242;48.796;9.930;2022-07-18T06:34:57;22.40;89.80
36206;DHT22;22242;48.796;9.930;2022-07-18T06:37:24;22.90;89.60
36206;DHT22;22242;48.796;9.930;2022-07-18T06:39:51;23.20;86.90
36206;DHT22;22242;48.796;9.930;2022-07-18T06:42:18;23.30;85.70
36206;DHT22;22242;48.796;9.930;2022-07-18T06:44:45;23.00;87.20
36206;DHT22;22242;48.796;9.930;2022-07-18T06:47:13;23.30;87.70
36206;DHT22;22242;48.796;9.930;2022-07-18T06:49:40;23.60;88.80
36206;DHT22;22242;48.796;9.930;2022-07-18T06:52:07;23.50;90.70
36206;DHT22;22242;48.796;9.930;2022-07-18T06:54:37;23.30;91.00
36206;DHT22;22242;48.796;9.930;2022-07-18T06:57:06;23.50;91.00
36206;DHT22;22242;48.796;9.930;2022-07-18T06:59:35;23.70;90.00
36206;DHT22;22242;48.796;9.930;2022-07-18T07:02:02;23.80;89.30
36206;DHT22;22242;48.796;9.930;2022-07-18T07:04:31;23.80;90.40
36206;DHT22;22242;48.796;9.930;2022-07-18T07:06:58;24.00;90.50
36206;DHT22;22242;48.796;9.930;2022-07-18T07:09:25;24.20;89.10
36206;DHT22;22242;48.796;9.930;2022-07-18T07:11:52;24.60;90.90
36206;DHT22;22242;48.796;9.930;2022-07-18T07:14:19;24.50;88.20
36206;DHT22;22242;48.796;9.930;2022-07-18T07:16:46;24.90;89.70
36206;DHT22;22242;48.796;9.930;2022-07-18T07:19:13;25.50;86.00
36206;DHT22;22242;48.796;9.930;2022-07-18T07:21:42;25.70;80.00
36206;DHT22;22242;48.796;9.930;2022-07-18T07:24:09;26.70;81.40
36206;DHT22;22242;48.796;9.930;2022-07-18T07:26:36;26.70;77.50
36206;DHT22;22242;48.796;9.930;2022-07-18T07:29:03;26.70;78.90
36206;DHT22;22242;48.796;9.930;2022-07-18T07:31:30;27.30;76.70
36206;DHT22;22242;48.796;9.930;2022-07-18T07:33:57;27.30;74.30
36206;DHT22;22242;48.796;9.930;2022-07-18T07:36:24;28.20;77.60
36206;DHT22;22242;48.796;9.930;2022-07-18T07:38:52;28.40;74.10
36206;DHT22;22242;48.796;9.930;2022-07-18T07:41:19;27.80;73.50
36206;DHT22;22242;48.796;9.930;2022-07-18T07:43:47;28.20;69.10
36206;DHT22;22242;48.796;9.930;2022-07-18T07:46:14;28.60;65.30
36206;DHT22;22242;48.796;9.930;2022-07-18T07:48:41;28.50;63.50
36206;DHT22;22242;48.796;9.930;2022-07-18T07:51:09;27.80;61.10
36206;DHT22;22242;48.796;9.930;2022-07-18T07:53:36;28.50;62.60
36206;DHT22;22242;48.796;9.930;2022-07-18T07:56:04;29.30;58.30
36206;DHT22;22242;48.796;9.930;2022-07-18T07:58:31;29.70;60.10
36206;DHT22;22242;48.796;9.930;2022-07-18T08:00:58;30.10;55.20
36206;DHT22;22242;48.796;9.930;2022-07-18T08:03:25;29.50;58.30
36206;DHT22;22242;48.796;9.930;2022-07-18T08:05:53;30.60;54.50
36206;DHT22;22242;48.796;9.930;2022-07-18T08:08:20;32.10;56.10
36206;DHT22;22242;48.796;9.930;2022-07-18T08:10:47;31.60;55.30
36206;DHT22;22242;48.796;9.930;2022-07-18T08:13:15;32.20;53.40
36206;DHT22;22242;48.796;9.930;2022-07-18T08:15:42;32.70;54.90
36206;DHT22;22242;48.796;9.930;2022-07-18T08:18:09;32.60;47.80
36206;DHT22;22242;48.796;9.930;2022-07-18T08:20:36;32.20;50.90
36206;DHT22;22242;48.796;9.930;2022-07-18T08:23:05;33.00;52.70
36206;DHT22;22242;48.796;9.930;2022-07-18T08:25:33;33.20;49.40
36206;DHT22;22242;48.796;9.930;2022-07-18T08:28:01;33.70;50.80
36206;DHT22;22242;48.796;9.930;2022-07-18T08:30:31;33.70;47.60
36206;DHT22;22242;48.796;9.930;2022-07-18T08:32:58;33.70;48.50
36206;DHT22;22242;48.796;9.930;2022-07-18T08:35:27;34.30;48.20
36206;DHT22;22242;48.796;9.930;2022-07-18T08:37:53;34.10;48.40
36206;DHT22;22242;48.796;9.930;2022-07-18T08:40:21;34.30;46.60
36206;DHT22;22242;48.796;9.930;2022-07-18T08:42:50;34.30;47.10
36206;DHT22;22242;48.796;9.930;2022-07-18T08:45:20;34.20;46.20
36206;DHT22;22242;48.796;9.930;2022-07-18T08:47:48;34.00;46.90
36206;DHT22;22242;48.796;9.930;2022-07-18T08:50:15;34.30;48.70
36206;DHT22;22242;48.796;9.930;2022-07-18T08:52:43;34.20;48.60
36206;DHT22;22242;48.796;9.930;2022-07-18T08:55:11;34.10;47.70
36206;DHT22;22242;48.796;9.930;2022-07-18T08:57:38;34.50;46.40
36206;DHT22;22242;48.796;9.930;2022-07-18T09:00:09;34.00;43.40
36206;DHT22;22242;48.796;9.930;2022-07-18T09:02:37;33.00;49.20
36206;DHT22;22242;48.796;9.930;2022-07-18T09:05:16;34.30;45.20
36206;DHT22;22242;48.796;9.930;2022-07-18T09:07:43;34.30;43.40
36206;DHT22;22242;48.796;9.930;2022-07-18T09:10:10;33.90;44.30
36206;DHT22;22242;48.796;9.930;2022-07-18T09:12:37;34.40;43.90
36206;DHT22;22242;48.796;9.930;2022-07-18T09:15:06;34.70;42.60
36206;DHT22;22242;48.796;9.930;2022-07-18T09:17:34;34.50;41.10
36206;DHT22;22242;48.796;9.930;2022-07-18T09:20:06;34.80;40.60
36206;DHT22;22242;48.796;9.930;2022-07-18T09:22:35;34.90;42.40
36206;DHT22;22242;48.796;9.930;2022-07-18T09:25:05;35.10;41.20
36206;DHT22;22242;48.796;9.930;2022-07-18T09:27:36;34.80;43.00
36206;DHT22;22242;48.796;9.930;2022-07-18T09:30:21;34.70;43.40
36206;DHT22;22242;48.796;9.930;2022-07-18T09:32:49;35.30;41.40
36206;DHT22;22242;48.796;9.930;2022-07-18T09:35:22;34.90;39.80
36206;DHT22;22242;48.796;9.930;2022-07-18T09:38:03;35.10;39.50
36206;DHT22;22242;48.796;9.930;2022-07-18T09:40:31;35.20;41.30
36206;DHT22;22242;48.796;9.930;2022-07-18T09:43:00;34.80;39.80
36206;DHT22;22242;48.796;9.930;2022-07-18T09:45:30;35.10;41.60
36206;DHT22;22242;48.796;9.930;2022-07-18T09:47:58;34.80;39.20
36206;DHT22;22242;48.796;9.930;2022-07-18T09:50:33;35.20;42.30
36206;DHT22;22242;48.796;9.930;2022-07-18T09:53:10;35.60;39.60
36206;DHT22;22242;48.796;9.930;2022-07-18T09:55:43;35.00;40.30
36206;DHT22;22242;48.796;9.930;2022-07-18T09:58:10;35.50;42.70
36206;DHT22;22242;48.796;9.930;2022-07-18T10:00:39;35.80;41.10
36206;DHT22;22242;48.796;9.930;2022-07-18T10:03:08;35.20;39.10
36206;DHT22;22242;48.796;9.930;2022-07-18T10:05:38;34.90;40.90
36206;DHT22;22242;48.796;9.930;2022-07-18T10:08:07;35.20;40.70
36206;DHT22;22242;48.796;9.930;2022-07-18T10:10:35;35.40;39.00
36206;DHT22;22242;48.796;9.930;2022-07-18T10:13:04;36.00;39.70
36206;DHT22;22242;48.796;9.930;2022-07-18T10:15:33;35.00;39.30
36206;DHT22;22242;48.796;9.930;2022-07-18T10:18:02;33.20;38.80
36206;DHT22;22242;48.796;9.930;2022-07-18T10:20:32;33.60;41.60
36206;DHT22;22242;48.796;9.930;2022-07-18T10:23:08;34.50;42.00
36206;DHT22;22242;48.796;9.930;2022-07-18T10:25:36;35.10;41.70
36206;DHT22;22242;48.796;9.930;2022-07-18T10:28:07;34.70;37.30
36206;DHT22;22242;48.796;9.930;2022-07-18T10:30:36;35.00;40.30
36206;DHT22;22242;48.796;9.930;2022-07-18T10:36:01;35.00;39.60
36206;DHT22;22242;48.796;9.930;2022-07-18T10:38:30;34.80;41.30
36206;DHT22;22242;48.796;9.930;2022-07-18T10:41:12;35.20;40.90
36206;DHT22;22242;48.796;9.930;2022-07-18T10:43:41;34.40;40.40
36206;DHT22;22242;48.796;9.930;2022-07-18T10:46:09;35.40;40.70
36206;DHT22;22242;48.796;9.930;2022-07-18T10:49:04;35.50;38.40
36206;DHT22;22242;48.796;9.930;2022-07-18T10:51:32;34.60;40.30
36206;DHT22;22242;48.796;9.930;2022-07-18T10:54:11;35.10;39.80
36206;DHT22;22242;48.796;9.930;2022-07-18T10:57:05;35.60;39.80
36206;DHT22;22242;48.796;9.930;2022-07-18T10:59:34;34.30;38.00
36206;DHT22;22242;48.796;9.930;2022-07-18T11:02:04;33.90;38.90
36206;DHT22;22242;48.796;9.930;2022-07-18T11:04:35;34.40;37.50
36206;DHT22;22242;48.796;9.930;2022-07-18T11:07:05;33.90;37.40
36206;DHT22;22242;48.796;9.930;2022-07-18T11:09:37;34.50;37.50
36206;DHT22;22242;48.796;9.930;2022-07-18T11:12:21;34.00;37.30
36206;DHT22;22242;48.796;9.930;2022-07-18T11:15:02;33.40;38.80
36206;DHT22;22242;48.796;9.930;2022-07-18T11:17:57;33.70;40.60
36206;DHT22;22242;48.796;9.930;2022-07-18T11:20:27;34.10;42.10
36206;DHT22;22242;48.796;9.930;2022-07-18T11:22:55;33.40;41.50
36206;DHT22;22242;48.796;9.930;2022-07-18T11:25:27;32.90;39.90
36206;DHT22;22242;48.796;9.930;2022-07-18T11:27:55;32.50;43.30
36206;DHT22;22242;48.796;9.930;2022-07-18T11:30:23;33.10;43.50
36206;DHT22;22242;48.796;9.930;2022-07-18T11:32:51;33.30;41.90
36206;DHT22;22242;48.796;9.930;2022-07-18T11:35:22;33.20;42.40
36206;DHT22;22242;48.796;9.930;2022-07-18T11:37:50;33.50;43.00
36206;DHT22;22242;48.796;9.930;2022-07-18T11:40:18;33.60;42.20
36206;DHT22;22242;48.796;9.930;2022-07-18T11:42:46;33.50;42.50
36206;DHT22;22242;48.796;9.930;2022-07-18T11:45:14;33.00;40.20
36206;DHT22;22242;48.796;9.930;2022-07-18T11:47:49;33.30;43.60
36206;DHT22;22242;48.796;9.930;2022-07-18T11:50:17;33.00;45.20
36206;DHT22;22242;48.796;9.930;2022-07-18T11:52:45;32.90;43.90
36206;DHT22;22242;48.796;9.930;2022-07-18T11:55:13;32.70;46.20
36206;DHT22;22242;48.796;9.930;2022-07-18T11:57:40;32.70;44.70
36206;DHT22;22242;48.796;9.930;2022-07-18T12:00:16;32.60;43.20
36206;DHT22;22242;48.796;9.930;2022-07-18T12:03:08;32.50;43.10
36206;DHT22;22242;48.796;9.930;2022-07-18T12:05:38;32.40;42.90
36206;DHT22;22242;48.796;9.930;2022-07-18T12:08:23;32.10;43.30
36206;DHT22;22242;48.796;9.930;2022-07-18T12:11:07;32.20;45.30
36206;DHT22;22242;48.796;9.930;2022-07-18T12:13:44;31.40;45.90
36206;DHT22;22242;48.796;9.930;2022-07-18T12:16:46;31.50;45.50
36206;DHT22;22242;48.796;9.930;2022-07-18T12:19:15;31.60;44.70
36206;DHT22;22242;48.796;9.930;2022-07-18T12:21:48;31.70;45.50
36206;DHT22;22242;48.796;9.930;2022-07-18T12:24:28;31.80;45.30
36206;DHT22;22242;48.796;9.930;2022-07-18T12:27:18;31.90;44.90
36206;DHT22;22242;48.796;9.930;2022-07-18T12:29:59;31.80;44.30
36206;DHT22;22242;48.796;9.930;2022-07-18T12:32:35;31.90;42.90
36206;DHT22;22242;48.796;9.930;2022-07-18T12:35:04;31.10;42.60
36206;DHT22;22242;48.796;9.930;2022-07-18T12:37:32;31.40;45.00
36206;DHT22;22242;48.796;9.930;2022-07-18T12:40:00;31.40;46.20
36206;DHT22;22242;48.796;9.930;2022-07-18T12:42:28;31.20;43.60
36206;DHT22;22242;48.796;9.930;2022-07-18T12:44:56;31.20;46.70
36206;DHT22;22242;48.796;9.930;2022-07-18T12:47:23;31.20;47.10
36206;DHT22;22242;48.796;9.930;2022-07-18T12:49:51;31.50;45.50
36206;DHT22;22242;48.796;9.930;2022-07-18T12:52:19;31.30;47.60
36206;DHT22;22242;48.796;9.930;2022-07-18T12:54:46;31.00;45.70
36206;DHT22;22242;48.796;9.930;2022-07-18T12:57:13;31.30;47.00
36206;DHT22;22242;48.796;9.930;2022-07-18T12:59:41;31.40;46.80
36206;DHT22;22242;48.796;9.930;2022-07-18T13:02:08;30.90;45.10
36206;DHT22;22242;48.796;9.930;2022-07-18T13:04:35;31.10;46.00
36206;DHT22;22242;48.796;9.930;2022-07-18T13:07:03;31.10;48.90
36206;DHT22;22242;48.796;9.930;2022-07-18T13:09:31;31.30;46.50
36206;DHT22;22242;48.796;9.930;2022-07-18T13:11:58;31.30;45.10
36206;DHT22;22242;48.796;9.930;2022-07-18T13:14:26;31.00;42.30
36206;DHT22;22242;48.796;9.930;2022-07-18T13:16:53;31.00;46.20
36206;DHT22;22242;48.796;9.930;2022-07-18T13:19:21;30.80;44.60
36206;DHT22;22242;48.796;9.930;2022-07-18T13:21:48;30.90;46.60
36206;DHT22;22242;48.796;9.930;2022-07-18T13:24:17;31.00;45.70
36206;DHT22;22242;48.796;9.930;2022-07-18T13:26:44;30.80;44.10
36206;DHT22;22242;48.796;9.930;2022-07-18T13:29:11;30.40;43.00
36206;DHT22;22242;48.796;9.930;2022-07-18T13:31:38;30.00;44.00
36206;DHT22;22242;48.796;9.930;2022-07-18T13:34:05;30.00;45.90
36206;DHT22;22242;48.796;9.930;2022-07-18T13:36:32;30.00;44.10
36206;DHT22;22242;48.796;9.930;2022-07-18T13:38:59;30.30;44.30
36206;DHT22;22242;48.796;9.930;2022-07-18T13:41:29;30.00;43.10
36206;DHT22;22242;48.796;9.930;2022-07-18T13:43:56;29.60;45.20
36206;DHT22;22242;48.796;9.930;2022-07-18T13:46:23;30.00;42.70
36206;DHT22;22242;48.796;9.930;2022-07-18T13:48:50;30.20;45.00
36206;DHT22;22242;48.796;9.930;2022-07-18T13:51:17;30.20;43.60
36206;DHT22;22242;48.796;9.930;2022-07-18T13:53:44;30.10;44.00
36206;DHT22;22242;48.796;9.930;2022-07-18T13:56:11;30.20;46.40
36206;DHT22;22242;48.796;9.930;2022-07-18T13:58:39;30.40;46.60
36206;DHT22;22242;48.796;9.930;2022-07-18T14:01:06;30.40;44.20
36206;DHT22;22242;48.796;9.930;2022-07-18T14:03:34;30.30;42.40
36206;DHT22;22242;48.796;9.930;2022-07-18T14:06:01;30.00;42.50
36206;DHT22;22242;48.796;9.930;2022-07-18T14:08:28;30.40;42.70
36206;DHT22;22242;48.796;9.930;2022-07-18T14:10:55;30.50;46.80
36206;DHT22;22242;48.796;9.930;2022-07-18T14:13:22;30.70;43.90
36206;DHT22;22242;48.796;9.930;2022-07-18T14:15:51;30.80;45.10
36206;DHT22;22242;48.796;9.930;2022-07-18T14:18:17;30.50;41.90
36206;DHT22;22242;48.796;9.930;2022-07-18T14:20:44;30.50;44.00
36206;DHT22;22242;48.796;9.930;2022-07-18T14:23:11;30.60;45.20
36206;DHT22;22242;48.796;9.930;2022-07-18T14:25:38;30.60;45.10
36206;DHT22;22242;48.796;9.930;2022-07-18T14:28:05;30.60;45.80
36206;DHT22;22242;48.796;9.930;2022-07-18T14:30:33;30.60;44.40
36206;DHT22;22242;48.796;9.930;2022-07-18T14:33:01;30.60;47.50
36206;DHT22;22242;48.796;9.930;2022-07-18T14:35:28;30.40;42.50
36206;DHT22;22242;48.796;9.930;2022-07-18T14:37:56;30.30;45.90
36206;DHT22;22242;48.796;9.930;2022-07-18T14:40:23;30.50;43.10
36206;DHT22;22242;48.796;9.930;2022-07-18T14:42:51;30.40;43.30
36206;DHT22;22242;48.796;9.930;2022-07-18T14:45:17;30.40;44.10
36206;DHT22;22242;48.796;9.930;2022-07-18T14:47:45;30.40;45.10
36206;DHT22;22242;48.796;9.930;2022-07-18T14:50:13;30.40;47.00
36206;DHT22;22242;48.796;9.930;2022-07-18T14:52:40;30.40;45.90
36206;DHT22;22242;48.796;9.930;2022-07-18T14:55:08;30.00;46.60
36206;DHT22;22242;48.796;9.930;2022-07-18T14:57:36;29.90;44.80
36206;DHT22;22242;48.796;9.930;2022-07-18T15:00:06;29.80;49.50
36206;DHT22;22242;48.796;9.930;2022-07-18T15:02:34;29.80;48.80
36206;DHT22;22242;48.796;9.930;2022-07-18T15:05:02;29.80;46.90
36206;DHT22;22242;48.796;9.930;2022-07-18T15:07:30;29.90;46.60
36206;DHT22;22242;48.796;9.930;2022-07-18T15:09:57;29.90;46.80
36206;DHT22;22242;48.796;9.930;2022-07-18T15:12:24;29.70;46.70
36206;DHT22;22242;48.796;9.930;2022-07-18T15:14:51;29.60;44.70
36206;DHT22;22242;48.796;9.930;2022-07-18T15:17:20;29.70;43.60
36206;DHT22;22242;48.796;9.930;2022-07-18T15:19:47;29.60;47.60
36206;DHT22;22242;48.796;9.930;2022-07-18T15:22:14;29.60;44.10
36206;DHT22;22242;48.796;9.930;2022-07-18T15:24:42;29.60;45.90
36206;DHT22;22242;48.796;9.930;2022-07-18T15:27:09;29.40;43.30
36206;DHT22;22242;48.796;9.930;2022-07-18T15:29:37;29.40;43.80
36206;DHT22;22242;48.796;9.930;2022-07-18T15:32:04;29.40;43.60
36206;DHT22;22242;48.796;9.930;2022-07-18T15:34:34;29.30;42.70
36206;DHT22;22242;48.796;9.930;2022-07-18T15:37:01;29.50;43.60
36206;DHT22;22242;48.796;9.930;2022-07-18T15:39:28;29.60;43.50
36206;DHT22;22242;48.796;9.930;2022-07-18T15:41:57;29.60;45.80